Time;durP1;ratioP1;P1;durP2;ratioP2;P2;SDS_P1;SDS_P2;PMS_P1;PMS_P2;Temp;Humidity;BMP_temperature;BMP_pressure;BME280_temperature;BME280_humidity;BME280_pressure;Samples;Min_cycle;Max_cycle;Signal;HPM_P1;HPM_P2
2020/12/22 00:00:14;;;;;;;4.32;3.92;;;;;;;9.62;71.72;95549.84;4962503;28;20031;-73
2020/12/22 00:02:47;;;;;;;4.03;3.72;;;;;;;9.64;71.49;95550.38;4954931;28;20130;-72
2020/12/22 00:05:13;;;;;;;5.70;3.85;;;;;;;9.56;71.61;95529.75;4970623;28;20358;-72
2020/12/22 00:07:39;;;;;;;4.43;3.95;;;;;;;9.71;71.56;95550.78;4972625;28;20042;-72
2020/12/22 00:10:06;;;;;;;4.93;3.85;;;;;;;9.61;71.55;95530.47;4970581;28;20042;-72
2020/12/22 00:12:32;;;;;;;4.63;4.15;;;;;;;9.58;72.11;95530.28;4970315;28;20035;-72
2020/12/22 00:14:59;;;;;;;4.18;3.78;;;;;;;9.52;72.19;95518.94;4970612;28;20037;-72
2020/12/22 00:17:24;;;;;;;3.85;3.40;;;;;;;9.37;72.17;95501.34;4970476;28;20035;-74
2020/12/22 00:19:50;;;;;;;4.28;3.50;;;;;;;9.52;72.21;95529.56;4971980;28;20019;-73
2020/12/22 00:22:15;;;;;;;7.63;4.03;;;;;;;9.33;73.01;95507.50;4969573;28;20463;-73
2020/12/22 00:24:41;;;;;;;4.20;3.80;;;;;;;9.48;72.95;95533.06;4970455;28;20448;-71
2020/12/22 00:27:06;;;;;;;3.90;2.65;;;;;;;9.51;73.11;95533.25;4970339;28;20031;-72
2020/12/22 00:29:31;;;;;;;3.30;3.00;;;;;;;9.57;73.11;95548.06;4969806;28;20118;-72
2020/12/22 00:32:00;;;;;;;4.93;3.85;;;;;;;9.57;73.35;95539.28;4971939;28;20014;-71
2020/12/22 00:34:27;;;;;;;3.17;2.33;;;;;;;9.56;72.54;95530.53;4970070;28;20035;-71
2020/12/22 00:36:53;;;;;;;3.28;2.70;;;;;;;9.49;72.98;95516.84;4970193;28;20489;-72
2020/12/22 00:39:18;;;;;;;2.40;2.20;;;;;;;9.42;73.42;95505.81;4969879;28;20086;-72
2020/12/22 00:41:43;;;;;;;3.95;2.60;;;;;;;9.55;73.61;95528.97;4968567;28;20046;-72
2020/12/22 00:44:09;;;;;;;3.75;2.80;;;;;;;9.58;73.70;95540.91;4971973;28;20062;-72
2020/12/22 00:46:34;;;;;;;3.65;2.58;;;;;;;9.58;73.59;95538.25;4969898;28;20074;-72
2020/12/22 00:49:00;;;;;;;2.65;2.45;;;;;;;9.57;73.55;95540.13;4969716;28;20117;-72
2020/12/22 00:51:26;;;;;;;2.60;2.40;;;;;;;9.67;73.95;95551.66;4968349;28;20026;-72
2020/12/22 00:53:52;;;;;;;2.70;2.20;;;;;;;9.61;74.00;95532.34;4968490;28;20035;-72
2020/12/22 00:56:17;;;;;;;4.40;2.92;;;;;;;9.71;73.75;95534.84;4968729;28;20480;-72
2020/12/22 00:58:43;;;;;;;3.50;3.00;;;;;;;9.81;73.99;95549.84;4971654;28;20029;-72
2020/12/22 01:01:08;;;;;;;4.97;3.30;;;;;;;9.75;74.02;95529.75;4969753;28;20100;-72
2020/12/22 01:03:34;;;;;;;3.03;2.83;;;;;;;9.86;73.79;95552.44;4969478;28;20455;-73
2020/12/22 01:05:59;;;;;;;3.78;2.88;;;;;;;9.75;73.92;95535.84;4969889;28;20053;-72
2020/12/22 01:08:25;;;;;;;2.33;2.13;;;;;;;9.82;73.65;95538.13;4969591;28;20018;-72
2020/12/22 01:10:50;;;;;;;2.55;2.28;;;;;;;9.94;74.47;95557.09;4971704;28;20026;-72
2020/12/22 01:13:16;;;;;;;2.20;2.00;;;;;;;9.93;74.26;95557.38;4969608;28;20050;-73
2020/12/22 01:15:41;;;;;;;2.33;2.13;;;;;;;9.94;74.23;95559.75;4969922;28;20058;-72
2020/12/22 01:18:06;;;;;;;2.75;2.35;;;;;;;9.65;75.46;95557.25;4969691;28;20459;-72
2020/12/22 01:20:31;;;;;;;3.30;2.65;;;;;;;9.45;76.22;95542.38;4968115;28;20042;-72
2020/12/22 01:22:57;;;;;;;2.30;2.10;;;;;;;9.52;76.79;95563.25;4970206;28;20034;-71
2020/12/22 01:25:22;;;;;;;2.45;2.30;;;;;;;9.48;77.36;95546.34;4969854;28;20177;-73
2020/12/22 01:27:47;;;;;;;2.60;2.10;;;;;;;9.58;77.54;95548.88;4957213;28;20031;-72
2020/12/22 01:30:13;;;;;;;2.72;2.53;;;;;;;9.58;77.30;95554.19;4950321;28;20131;-72
2020/12/22 01:32:38;;;;;;;2.55;2.35;;;;;;;9.70;77.52;95556.38;4954016;28;20090;-73
2020/12/22 01:35:04;;;;;;;4.28;2.35;;;;;;;9.58;77.16;95554.97;4989446;28;20023;-70
2020/12/22 01:37:29;;;;;;;2.33;2.13;;;;;;;9.59;77.74;95547.78;4973493;28;20027;-73
2020/12/22 01:39:54;;;;;;;2.50;2.30;;;;;;;9.48;78.31;95556.97;4973417;28;20088;-73
2020/12/22 01:42:19;;;;;;;2.28;2.08;;;;;;;9.62;78.53;95557.81;4973891;28;20035;-72
2020/12/22 01:44:45;;;;;;;3.17;2.58;;;;;;;9.63;78.17;95528.34;4973429;28;20084;-70
2020/12/22 01:47:10;;;;;;;3.00;2.75;;;;;;;9.71;77.95;95523.44;4975223;28;20030;-72
2020/12/22 01:49:36;;;;;;;3.05;2.75;;;;;;;9.88;77.75;95529.81;4972879;28;20046;-73
2020/12/22 01:52:02;;;;;;;2.17;2.08;;;;;;;10.01;76.97;95548.75;4972880;28;20046;-73
2020/12/22 01:54:28;;;;;;;2.78;2.55;;;;;;;9.98;77.22;95530.72;4973043;28;20034;-71
2020/12/22 01:56:54;;;;;;;2.58;2.38;;;;;;;10.03;76.67;95535.97;4972883;28;20031;-73
2020/12/22 01:59:19;;;;;;;2.60;2.40;;;;;;;10.21;76.08;95542.31;4972266;28;20030;-73
2020/12/22 02:01:45;;;;;;;3.10;2.55;;;;;;;10.03;76.90;95539.44;4974547;28;20038;-72
2020/12/22 02:04:12;;;;;;;4.03;3.70;;;;;;;9.92;77.22;95521.25;4972766;28;20050;-73
2020/12/22 02:06:37;;;;;;;5.10;3.35;;;;;;;10.03;77.52;95525.31;4972851;28;20122;-72
2020/12/22 02:09:08;;;;;;;4.38;3.97;;;;;;;10.00;77.31;95504.66;4971241;28;20126;-73
2020/12/22 02:11:35;;;;;;;4.30;3.90;;;;;;;10.08;77.51;95511.94;4969222;28;20513;-71
2020/12/22 02:14:02;;;;;;;4.35;3.92;;;;;;;10.08;77.99;95507.44;4954247;29;20042;-70
2020/12/22 02:16:27;;;;;;;3.80;3.50;;;;;;;10.07;77.93;95495.22;4971250;28;20497;-72
2020/12/22 02:18:54;;;;;;;3.60;3.30;;;;;;;10.03;78.28;95485.47;4972352;28;20057;-73
2020/12/22 02:21:20;;;;;;;4.05;3.67;;;;;;;10.00;78.41;95465.59;4972233;28;20404;-73
2020/12/22 02:23:49;;;;;;;6.18;4.05;;;;;;;10.01;78.58;95492.94;4972024;28;20136;-73
2020/12/22 02:26:19;;;;;;;3.28;2.97;;;;;;;10.00;79.07;95478.88;4972560;28;20110;-71
2020/12/22 02:28:45;;;;;;;3.40;3.10;;;;;;;10.01;79.05;95475.13;4974120;28;20102;-73
2020/12/22 02:31:10;;;;;;;2.65;2.45;;;;;;;10.01;78.43;95490.28;4970751;28;20121;-70
2020/12/22 02:33:36;;;;;;;2.17;1.90;;;;;;;9.60;79.97;95497.03;4972230;28;20058;-73
2020/12/22 02:36:01;;;;;;;2.00;1.75;;;;;;;9.57;80.35;95494.16;4972302;28;20546;-73
2020/12/22 02:38:27;;;;;;;2.45;1.60;;;;;;;9.52;81.04;95502.19;4972026;28;20448;-73
2020/12/22 02:40:52;;;;;;;1.75;1.65;;;;;;;9.42;80.92;95459.84;4973998;28;20026;-73
2020/12/22 02:43:17;;;;;;;2.05;1.42;;;;;;;9.68;80.58;95478.88;4971981;28;20445;-73
2020/12/22 02:45:44;;;;;;;1.90;1.52;;;;;;;9.58;80.95;95501.06;4971178;28;20130;-73
2020/12/22 02:48:12;;;;;;;2.22;1.83;;;;;;;9.56;81.01;95477.44;4972141;28;20089;-73
2020/12/22 02:50:38;;;;;;;2.78;1.95;;;;;;;9.79;80.47;95504.19;4970668;28;20670;-71
2020/12/22 02:53:04;;;;;;;1.90;1.80;;;;;;;9.86;80.04;95507.25;4974151;28;20033;-71
2020/12/22 02:55:29;;;;;;;4.68;2.50;;;;;;;9.92;79.58;95495.47;4972009;28;20105;-72
2020/12/22 02:57:55;;;;;;;2.60;2.40;;;;;;;9.83;79.69;95476.75;4971937;28;20039;-72
2020/12/22 03:00:21;;;;;;;2.38;1.75;;;;;;;9.81;79.29;95486.88;4971667;28;20070;-73
2020/12/22 03:02:47;;;;;;;2.28;2.03;;;;;;;9.80;79.43;95474.66;4971752;28;20058;-73
2020/12/22 03:05:12;;;;;;;2.45;2.20;;;;;;;9.76;79.90;95462.25;4971922;28;20023;-71
2020/12/22 03:07:37;;;;;;;3.17;2.70;;;;;;;9.84;79.52;95481.00;4973871;28;20019;-71
2020/12/22 03:10:06;;;;;;;2.33;2.13;;;;;;;9.79;79.87;95461.69;4971477;28;20046;-71
2020/12/22 03:12:32;;;;;;;2.30;2.08;;;;;;;9.80;79.64;95464.06;4971616;28;20477;-71
2020/12/22 03:14:57;;;;;;;3.58;2.60;;;;;;;9.89;79.06;95480.91;4971541;28;20097;-72
2020/12/22 03:17:22;;;;;;;2.22;1.92;;;;;;;9.81;78.98;95473.59;4971412;28;20034;-71
2020/12/22 03:19:48;;;;;;;2.20;2.00;;;;;;;9.76;79.54;95471.00;4973313;28;20076;-71
2020/12/22 03:22:13;;;;;;;3.33;2.20;;;;;;;9.72;80.35;95493.13;4969980;28;20576;-71
2020/12/22 03:24:38;;;;;;;2.38;1.75;;;;;;;9.26;81.89;95483.97;4970254;28;20097;-71
2020/12/22 03:27:03;;;;;;;1.63;1.52;;;;;;;8.73;85.61;95494.72;4969951;28;20037;-71
2020/12/22 03:29:29;;;;;;;1.55;1.45;;;;;;;8.63;86.78;95500.13;4970920;28;20034;-71
2020/12/22 03:31:54;;;;;;;8.68;1.30;;;;;;;8.67;88.68;95503.81;4973180;28;20048;-71
2020/12/22 03:34:19;;;;;;;1.73;1.05;;;;;;;8.63;89.08;95494.06;4970105;28;20484;-71
2020/12/22 03:36:45;;;;;;;0.68;0.50;;;;;;;8.75;88.88;95484.63;4971407;28;20062;-71
2020/12/22 03:39:10;;;;;;;0.73;0.68;;;;;;;8.91;87.95;95487.09;4969646;28;20122;-70
2020/12/22 03:41:35;;;;;;;0.50;0.50;;;;;;;9.05;88.47;95496.72;4970839;28;20106;-71
2020/12/22 03:44:00;;;;;;;0.40;0.40;;;;;;;8.98;88.86;95501.59;4971582;28;20587;-71
2020/12/22 03:46:26;;;;;;;0.40;0.38;;;;;;;9.25;88.19;95516.91;4952443;28;20040;-71
2020/12/22 03:48:52;;;;;;;0.45;0.20;;;;;;;9.26;88.52;95499.88;4963603;28;20117;-72
2020/12/22 03:51:17;;;;;;;0.52;0.20;;;;;;;9.36;87.99;95496.31;4970590;28;20135;-71
2020/12/22 03:53:42;;;;;;;0.65;0.40;;;;;;;9.52;87.23;95496.88;4970888;28;20039;-71
2020/12/22 03:56:07;;;;;;;0.40;0.40;;;;;;;9.45;87.90;95499.91;4987548;28;20027;-71
2020/12/22 03:58:33;;;;;;;0.40;0.40;;;;;;;9.70;87.05;95509.38;4970814;28;20038;-71
2020/12/22 04:00:58;;;;;;;0.38;0.28;;;;;;;9.73;87.26;95508.81;4971065;28;20489;-71
2020/12/22 04:03:25;;;;;;;1.20;0.40;;;;;;;9.83;86.33;95495.34;4970818;28;20066;-70
2020/12/22 04:05:50;;;;;;;0.30;0.30;;;;;;;9.97;85.70;95486.63;4970782;28;20045;-71
2020/12/22 04:08:16;;;;;;;0.57;0.47;;;;;;;9.92;86.07;95492.81;4970287;28;20031;-71
2020/12/22 04:10:41;;;;;;;0.35;0.35;;;;;;;9.78;86.49;95484.03;4972464;28;20034;-71
2020/12/22 04:13:06;;;;;;;0.40;0.32;;;;;;;9.80;86.54;95495.13;4997577;28;20038;-70
2020/12/22 04:15:32;;;;;;;0.30;0.30;;;;;;;9.47;87.72;95475.72;4970488;28;20043;-71
2020/12/22 04:17:57;;;;;;;0.50;0.40;;;;;;;9.64;87.86;95503.34;4970238;28;20058;-71
2020/12/22 04:20:22;;;;;;;0.85;0.35;;;;;;;9.58;87.36;95509.03;4970036;28;20464;-71
2020/12/22 04:22:48;;;;;;;0.22;0.20;;;;;;;9.53;87.63;95506.44;4972024;28;20027;-70
2020/12/22 04:25:13;;;;;;;1.80;0.35;;;;;;;9.40;87.72;95497.31;4970163;28;20039;-71
2020/12/22 04:27:38;;;;;;;0.43;0.43;;;;;;;9.53;86.44;95499.25;4970183;28;20085;-71
2020/12/22 04:30:03;;;;;;;1.10;0.65;;;;;;;9.55;85.94;95498.97;4969917;28;20718;-71
2020/12/22 04:32:29;;;;;;;0.30;0.30;;;;;;;9.57;86.42;95505.59;4984891;28;20031;-71
2020/12/22 04:34:55;;;;;;;1.17;0.70;;;;;;;9.66;85.70;95511.00;4970912;28;20039;-71
2020/12/22 04:37:20;;;;;;;1.05;1.02;;;;;;;9.70;85.23;95496.09;4970205;28;20054;-71
2020/12/22 04:39:46;;;;;;;0.95;0.50;;;;;;;9.75;84.72;95490.69;4970210;28;20035;-71
2020/12/22 04:42:13;;;;;;;0.20;0.20;;;;;;;9.69;85.28;95520.28;4969933;28;20035;-71
2020/12/22 04:44:40;;;;;;;0.47;0.47;;;;;;;9.64;85.41;95513.97;4970019;28;20094;-71
2020/12/22 04:47:08;;;;;;;0.73;0.50;;;;;;;9.62;85.40;95523.28;4972020;28;20027;-71
2020/12/22 04:49:36;;;;;;;0.50;0.50;;;;;;;9.48;85.56;95509.97;4969771;28;20119;-72
2020/12/22 04:52:02;;;;;;;0.50;0.50;;;;;;;9.55;85.54;95520.22;4969930;28;20153;-72
2020/12/22 04:54:28;;;;;;;0.65;0.60;;;;;;;9.58;84.89;95477.16;4969966;28;20094;-71
2020/12/22 04:56:53;;;;;;;0.60;0.60;;;;;;;9.63;83.84;95493.03;4969905;28;20030;-71
2020/12/22 04:59:18;;;;;;;0.60;0.60;;;;;;;9.67;83.81;95496.66;4968361;28;20066;-71
2020/12/22 05:01:44;;;;;;;1.65;0.60;;;;;;;9.75;83.82;95521.78;4986559;28;20023;-72
2020/12/22 05:04:11;;;;;;;0.52;0.40;;;;;;;9.76;83.96;95515.38;4954171;28;20071;-72
2020/12/22 05:06:37;;;;;;;0.40;0.40;;;;;;;9.67;83.57;95488.69;4962406;28;20046;-70
2020/12/22 05:09:03;;;;;;;0.60;0.40;;;;;;;9.68;84.22;95519.50;4971435;28;20035;-72
2020/12/22 05:11:29;;;;;;;0.70;0.30;;;;;;;9.61;83.99;95529.69;4974156;28;20054;-70
2020/12/22 05:13:56;;;;;;;0.45;0.40;;;;;;;9.89;83.17;95527.94;4976198;28;20061;-70
2020/12/22 05:16:26;;;;;;;0.50;0.30;;;;;;;9.93;82.66;95539.59;4972487;28;20780;-73
2020/12/22 05:18:54;;;;;;;0.22;0.22;;;;;;;10.10;81.69;95531.06;4973256;28;20080;-71
2020/12/22 05:21:19;;;;;;;0.20;0.20;;;;;;;10.21;81.29;95545.78;4973360;28;20027;-71
2020/12/22 05:23:47;;;;;;;0.30;0.30;;;;;;;10.15;82.13;95552.25;4973494;28;20042;-71
2020/12/22 05:26:13;;;;;;;0.20;0.20;;;;;;;10.21;80.81;95537.00;4972250;28;20153;-70
2020/12/22 05:28:38;;;;;;;0.30;0.30;;;;;;;10.50;79.75;95529.63;4975038;28;20500;-70
2020/12/22 05:31:12;;;;;;;1.02;0.30;;;;;;;10.64;78.81;95541.06;4973812;28;20047;-70
2020/12/22 05:33:41;;;;;;;0.98;0.63;;;;;;;10.57;79.25;95514.06;4974528;28;20042;-73
2020/12/22 05:36:07;;;;;;;1.77;1.00;;;;;;;10.54;78.41;95506.66;4974448;28;20031;-71
2020/12/22 05:38:35;;;;;;;0.30;0.28;;;;;;;10.45;78.29;95521.75;4974302;28;20046;-71
2020/12/22 05:41:03;;;;;;;0.25;0.25;;;;;;;10.54;78.48;95519.16;4976316;28;20046;-68
2020/12/22 05:43:39;;;;;;;0.20;0.20;;;;;;;10.75;78.05;95525.72;4972902;28;20096;-73
2020/12/22 05:46:04;;;;;;;0.25;0.25;;;;;;;10.61;78.12;95514.28;4974315;28;20129;-72
2020/12/22 05:48:30;;;;;;;0.20;0.20;;;;;;;10.88;76.96;95534.78;4974077;28;20121;-72
2020/12/22 05:51:01;;;;;;;0.40;0.40;;;;;;;10.76;77.24;95518.53;4973984;28;20043;-71
2020/12/22 05:53:27;;;;;;;0.90;0.20;;;;;;;10.61;78.01;95509.72;4975080;28;20443;-67
2020/12/22 05:55:52;;;;;;;0.30;0.30;;;;;;;10.80;76.87;95511.50;4975922;28;20018;-68
2020/12/22 05:58:18;;;;;;;0.30;0.30;;;;;;;10.71;77.53;95516.75;4973349;28;20027;-67
2020/12/22 06:00:44;;;;;;;0.77;0.20;;;;;;;10.76;77.24;95531.81;4974008;28;20432;-68
2020/12/22 06:03:14;;;;;;;1.17;0.40;;;;;;;10.83;77.16;95533.00;4973686;28;20058;-68
2020/12/22 06:05:41;;;;;;;0.30;0.30;;;;;;;10.72;77.26;95525.50;4969285;28;20039;-67
2020/12/22 06:08:11;;;;;;;0.45;0.45;;;;;;;10.78;77.53;95525.09;4956579;28;20031;-72
2020/12/22 06:10:39;;;;;;;0.30;0.30;;;;;;;10.71;76.30;95515.94;4972914;28;20118;-71
2020/12/22 06:13:06;;;;;;;0.73;0.20;;;;;;;10.89;75.72;95517.72;4973335;28;20413;-74
2020/12/22 06:15:32;;;;;;;0.55;0.45;;;;;;;10.84;75.99;95523.91;4973667;28;20030;-69
2020/12/22 06:17:58;;;;;;;0.32;0.32;;;;;;;10.82;76.82;95515.47;4973481;28;20089;-71
2020/12/22 06:20:28;;;;;;;0.30;0.30;;;;;;;10.75;76.55;95509.75;4973372;28;20026;-71
2020/12/22 06:23:05;;;;;;;0.40;0.40;;;;;;;10.88;76.42;95524.91;4975497;28;20110;-71
2020/12/22 06:25:31;;;;;;;0.38;0.38;;;;;;;10.89;75.77;95526.47;4973350;28;20569;-71
2020/12/22 06:27:57;;;;;;;0.85;0.50;;;;;;;10.80;75.71;95504.34;4973214;28;20477;-70
2020/12/22 06:30:38;;;;;;;0.63;0.40;;;;;;;11.05;75.81;95503.00;4973188;28;20090;-70
2020/12/22 06:33:17;;;;;;;0.60;0.40;;;;;;;10.94;76.03;95515.75;4970974;28;20055;-71
2020/12/22 06:36:02;;;;;;;0.30;0.30;;;;;;;11.08;75.18;95512.28;4973368;28;20057;-71
2020/12/22 06:38:46;;;;;;;0.20;0.20;;;;;;;11.08;75.00;95515.75;4972901;28;20027;-70
2020/12/22 06:41:24;;;;;;;0.32;0.32;;;;;;;11.25;74.21;95496.47;4974973;28;20033;-71
2020/12/22 06:43:50;;;;;;;0.40;0.40;;;;;;;11.11;75.39;95511.72;4973596;28;20045;-70
2020/12/22 06:46:33;;;;;;;1.10;0.35;;;;;;;11.26;75.00;95515.91;4973272;28;20129;-71
2020/12/22 06:49:02;;;;;;;0.43;0.43;;;;;;;11.14;74.54;95503.09;4972838;28;20122;-70
2020/12/22 06:51:31;;;;;;;0.30;0.30;;;;;;;11.27;74.34;95520.16;4972958;28;20070;-71
2020/12/22 06:53:57;;;;;;;0.40;0.30;;;;;;;11.17;74.94;95516.63;4972988;28;20031;-70
2020/12/22 06:56:39;;;;;;;0.32;0.30;;;;;;;11.13;75.02;95517.50;4973073;28;20490;-70
2020/12/22 06:59:05;;;;;;;0.30;0.30;;;;;;;11.29;74.45;95502.78;4974142;28;20035;-74
2020/12/22 07:01:31;;;;;;;1.23;0.30;;;;;;;11.05;74.55;95502.22;4972493;28;20050;-71
2020/12/22 07:04:17;;;;;;;3.33;1.23;;;;;;;11.39;73.76;95523.88;4972800;28;20043;-71
2020/12/22 07:06:51;;;;;;;0.32;0.30;;;;;;;11.02;74.90;95508.94;4972809;28;20042;-71
2020/12/22 07:09:23;;;;;;;0.70;0.30;;;;;;;11.40;73.69;95514.00;4962573;28;20501;-71
2020/12/22 07:11:51;;;;;;;0.47;0.20;;;;;;;11.44;73.72;95501.66;4957921;28;20034;-71
2020/12/22 07:14:18;;;;;;;0.60;0.30;;;;;;;11.47;72.82;95517.06;4972455;28;20110;-67
2020/12/22 07:16:50;;;;;;;0.52;0.30;;;;;;;11.85;72.08;95528.22;4974546;28;20177;-69
2020/12/22 07:19:21;;;;;;;0.40;0.40;;;;;;;11.58;73.21;95525.63;4956861;28;20039;-74
2020/12/22 07:21:47;;;;;;;0.20;0.20;;;;;;;11.63;71.97;95522.84;4965874;28;20445;-71
2020/12/22 07:24:13;;;;;;;0.47;0.32;;;;;;;11.36;73.24;95537.81;4973540;28;20139;-82
2020/12/22 07:26:39;;;;;;;0.80;0.80;;;;;;;11.48;72.59;95531.16;4971914;28;20504;-79
2020/12/22 07:29:07;;;;;;;0.40;0.40;;;;;;;11.52;72.32;95530.28;4957389;28;20020;-83
2020/12/22 07:31:34;;;;;;;0.57;0.57;;;;;;;11.64;72.91;95545.72;5003547;28;20506;-69
2020/12/22 07:34:06;;;;;;;0.20;0.20;;;;;;;11.54;72.43;95536.09;4970603;28;20050;-74
2020/12/22 07:36:33;;;;;;;0.30;0.30;;;;;;;11.54;73.09;95541.41;4972310;28;20039;-71
2020/12/22 07:39:23;;;;;;;0.35;0.30;;;;;;;11.64;72.42;95545.72;4972075;28;20138;-72
2020/12/22 07:41:52;;;;;;;1.27;0.30;;;;;;;11.55;72.80;95534.22;4971861;28;20669;-69
2020/12/22 07:44:22;;;;;;;0.60;0.60;;;;;;;11.77;71.47;95522.78;4970734;28;20027;-71
2020/12/22 07:46:52;;;;;;;0.13;0.13;;;;;;;11.69;72.00;95537.63;4974188;28;20053;-74
2020/12/22 07:49:17;;;;;;;0.10;0.10;;;;;;;11.78;71.48;95546.50;4972201;28;20042;-73
2020/12/22 07:51:47;;;;;;;0.60;0.20;;;;;;;11.82;71.75;95523.47;4970434;28;20043;-73
2020/12/22 07:54:13;;;;;;;0.75;0.38;;;;;;;12.19;70.70;95532.25;4971797;28;20035;-70
2020/12/22 07:56:41;;;;;;;0.35;0.22;;;;;;;11.93;71.39;95537.38;4971437;28;20129;-72
2020/12/22 07:59:15;;;;;;;0.30;0.30;;;;;;;12.06;71.02;95549.06;4972937;28;20033;-72
2020/12/22 08:01:44;;;;;;;1.05;0.30;;;;;;;11.78;71.95;95546.50;4972174;28;20041;-73
2020/12/22 08:04:14;;;;;;;0.30;0.30;;;;;;;11.84;71.40;95534.66;4971661;28;20067;-75
2020/12/22 08:06:41;;;;;;;2.28;0.20;;;;;;;11.94;71.63;95553.06;4968692;28;20047;-73
2020/12/22 08:09:07;;;;;;;0.32;0.30;;;;;;;12.02;71.11;95527.56;4971845;28;20189;-73
2020/12/22 08:11:32;;;;;;;0.80;0.63;;;;;;;12.28;69.98;95556.28;4971378;28;20573;-73
2020/12/22 08:14:01;;;;;;;0.50;0.20;;;;;;;12.10;70.71;95561.50;4973579;28;20030;-73
2020/12/22 08:16:29;;;;;;;0.73;0.30;;;;;;;12.30;69.94;95552.22;4971500;28;20047;-74
2020/12/22 08:18:55;;;;;;;1.05;0.30;;;;;;;12.39;69.28;95550.41;4970941;28;20102;-75
2020/12/22 08:21:22;;;;;;;0.10;0.10;;;;;;;12.15;70.10;95552.59;4969974;28;20089;-73
2020/12/22 08:23:48;;;;;;;1.40;0.20;;;;;;;12.29;69.71;95542.66;4969452;28;20035;-75
2020/12/22 08:26:17;;;;;;;0.13;0.13;;;;;;;11.95;70.43;95519.19;4969656;28;20031;-79
2020/12/22 08:28:50;;;;;;;0.45;0.20;;;;;;;12.23;69.58;95542.00;4972226;28;20015;-76
2020/12/22 08:31:21;;;;;;;0.30;0.30;;;;;;;12.35;69.23;95554.78;4970931;28;20050;-71
2020/12/22 08:33:52;;;;;;;2.13;0.30;;;;;;;12.32;69.46;95550.03;4971321;28;20705;-70
2020/12/22 08:36:19;;;;;;;0.68;0.65;;;;;;;12.11;69.07;95519.63;4971333;28;20510;-78
2020/12/22 08:38:45;;;;;;;0.13;0.13;;;;;;;12.42;69.15;95563.13;4970525;28;20290;-76
2020/12/22 08:41:21;;;;;;;0.73;0.10;;;;;;;12.46;69.00;95566.75;4973811;28;20114;-77
2020/12/22 08:43:52;;;;;;;0.85;0.30;;;;;;;12.42;69.13;95563.13;4971392;28;20512;-74
2020/12/22 08:46:20;;;;;;;0.38;0.38;;;;;;;12.29;69.19;95566.66;4971855;28;20034;-75
2020/12/22 08:48:48;;;;;;;0.65;0.30;;;;;;;12.31;69.81;95566.34;4970884;28;20039;-80
2020/12/22 08:51:26;;;;;;;0.20;0.20;;;;;;;12.70;68.58;95581.66;4971618;28;20105;-76
2020/12/22 08:53:53;;;;;;;0.50;0.47;;;;;;;12.58;68.71;95573.41;4970543;28;20105;-81
2020/12/22 08:56:23;;;;;;;0.20;0.20;;;;;;;12.84;67.68;95571.66;4971709;28;20031;-75
2020/12/22 08:58:58;;;;;;;0.20;0.20;;;;;;;12.70;67.91;95587.78;4972365;28;20392;-77
2020/12/22 09:01:25;;;;;;;1.27;0.30;;;;;;;12.61;68.58;95583.50;4971217;28;20173;-72
2020/12/22 09:03:53;;;;;;;1.33;0.32;;;;;;;12.48;68.49;95569.91;4971444;28;20449;-77
2020/12/22 09:06:32;;;;;;;0.40;0.38;;;;;;;13.06;67.30;95594.09;4970298;28;20036;-75
2020/12/22 09:09:02;;;;;;;0.30;0.28;;;;;;;12.88;67.21;95583.31;4971218;28;20046;-80
2020/12/22 09:11:27;;;;;;;1.23;0.22;;;;;;;12.82;67.25;95568.53;4971500;28;20027;-76
2020/12/22 09:14:04;;;;;;;1.13;0.22;;;;;;;12.88;67.39;95583.31;4972551;28;20015;-71
2020/12/22 09:16:49;;;;;;;1.20;0.20;;;;;;;12.86;67.55;95596.19;4970089;28;20445;-73
2020/12/22 09:19:16;;;;;;;0.20;0.20;;;;;;;13.05;66.72;95581.81;4970026;28;20074;-73
2020/12/22 09:21:41;;;;;;;0.20;0.20;;;;;;;12.75;67.24;95573.53;4969861;28;20031;-72
2020/12/22 09:24:07;;;;;;;0.20;0.20;;;;;;;12.94;66.41;95573.28;4969364;28;20038;-72
2020/12/22 09:26:33;;;;;;;0.20;0.20;;;;;;;13.10;66.57;95600.34;4969458;28;22665;-72
2020/12/22 09:28:59;;;;;;;0.65;0.20;;;;;;;12.85;66.67;95593.84;4970376;28;20030;-72
2020/12/22 09:31:26;;;;;;;2.67;0.20;;;;;;;12.90;66.19;95588.34;4970223;28;20170;-72
2020/12/22 09:33:51;;;;;;;1.00;0.25;;;;;;;12.82;66.60;95586.44;4970711;28;20035;-71
2020/12/22 09:36:16;;;;;;;0.38;0.38;;;;;;;12.82;66.51;95591.75;4970616;28;20042;-72
2020/12/22 09:38:42;;;;;;;0.38;0.30;;;;;;;12.96;65.90;95603.94;4970178;28;20488;-72
2020/12/22 09:41:07;;;;;;;0.25;0.25;;;;;;;13.01;65.74;95593.13;4971175;28;20037;-70
2020/12/22 09:43:33;;;;;;;0.20;0.20;;;;;;;12.73;66.03;95599.72;4970431;28;20046;-75
2020/12/22 09:45:59;;;;;;;1.00;0.30;;;;;;;12.68;66.49;95586.50;4969192;28;20129;-69
2020/12/22 09:48:24;;;;;;;0.47;0.17;;;;;;;12.78;65.86;95588.91;4970197;28;20238;-70
2020/12/22 09:50:50;;;;;;;0.30;0.30;;;;;;;12.75;66.00;95592.22;4970209;28;20504;-73
2020/12/22 09:53:15;;;;;;;0.50;0.40;;;;;;;13.07;65.04;95598.31;4968879;28;20043;-70
2020/12/22 09:55:40;;;;;;;0.60;0.30;;;;;;;12.93;64.97;95574.38;4974548;28;20022;-69
2020/12/22 09:58:05;;;;;;;0.30;0.30;;;;;;;13.36;63.83;95589.78;4973422;28;20677;-72
2020/12/22 10:00:31;;;;;;;0.70;0.30;;;;;;;13.19;64.31;95558.44;4973608;28;20121;-71
2020/12/22 10:02:56;;;;;;;1.35;0.20;;;;;;;13.01;64.50;95584.31;4973794;28;20054;-70
2020/12/22 10:05:21;;;;;;;0.10;0.10;;;;;;;13.09;64.42;95586.22;4972431;28;20062;-70
2020/12/22 10:07:46;;;;;;;0.40;0.20;;;;;;;13.24;63.60;95598.41;4990645;28;20456;-70
2020/12/22 10:10:12;;;;;;;2.33;0.50;;;;;;;13.14;64.02;95593.31;4973464;28;20031;-71
2020/12/22 10:12:37;;;;;;;1.38;0.85;;;;;;;13.45;63.27;95599.41;4973659;28;20041;-69
2020/12/22 10:15:03;;;;;;;0.85;0.10;;;;;;;13.21;64.02;95599.81;4973669;28;20035;-70
2020/12/22 10:17:28;;;;;;;0.15;0.15;;;;;;;13.29;63.68;95592.13;4972262;28;20191;-71
2020/12/22 10:19:54;;;;;;;0.85;0.30;;;;;;;13.38;63.44;95599.09;4973999;28;20027;-69
2020/12/22 10:22:19;;;;;;;0.55;0.35;;;;;;;13.34;62.81;95578.63;4971900;28;20042;-69
2020/12/22 10:24:44;;;;;;;0.47;0.22;;;;;;;13.41;63.00;95597.66;4973472;28;20480;-69
2020/12/22 10:27:10;;;;;;;1.60;0.35;;;;;;;13.44;63.66;95605.06;4971937;28;20070;-68
2020/12/22 10:29:35;;;;;;;0.73;0.40;;;;;;;13.36;63.18;95603.16;4972595;28;20480;-69
2020/12/22 10:32:00;;;;;;;2.17;0.35;;;;;;;13.27;63.94;95603.16;4975202;28;20019;-68
2020/12/22 10:34:26;;;;;;;0.30;0.25;;;;;;;13.58;62.87;95603.06;4973051;28;20050;-68
2020/12/22 10:36:51;;;;;;;1.23;0.35;;;;;;;13.45;63.05;95618.13;4973172;28;20043;-69
2020/12/22 10:39:16;;;;;;;0.43;0.40;;;;;;;13.04;63.52;95577.56;4971655;28;20041;-69
2020/12/22 10:41:41;;;;;;;0.50;0.30;;;;;;;13.13;63.64;95599.75;4971568;28;20492;-69
2020/12/22 10:44:07;;;;;;;1.00;0.38;;;;;;;13.57;63.00;95609.53;4974762;28;20114;-68
2020/12/22 10:46:32;;;;;;;0.47;0.20;;;;;;;13.12;63.94;95622.22;4972836;28;20614;-68
2020/12/22 10:48:57;;;;;;;0.60;0.20;;;;;;;13.11;63.21;95605.41;4972183;28;20085;-70
2020/12/22 10:51:23;;;;;;;0.20;0.10;;;;;;;13.45;62.77;95622.69;4972417;28;20039;-67
2020/12/22 10:53:48;;;;;;;2.85;0.30;;;;;;;13.17;63.24;95606.06;4972838;28;20489;-71
2020/12/22 10:56:14;;;;;;;0.38;0.30;;;;;;;13.26;63.50;95618.38;4972384;28;20023;-69
2020/12/22 10:58:41;;;;;;;1.00;0.40;;;;;;;13.43;62.83;95608.84;4972951;28;20034;-69
2020/12/22 11:01:07;;;;;;;0.35;0.30;;;;;;;13.45;62.09;95626.13;4972936;28;20043;-70
2020/12/22 11:03:32;;;;;;;1.13;0.30;;;;;;;13.14;63.89;95617.34;4972362;28;20045;-71
2020/12/22 11:06:06;;;;;;;0.52;0.20;;;;;;;12.97;63.67;95604.72;4971540;28;20039;-68
2020/12/22 11:08:32;;;;;;;0.45;0.45;;;;;;;13.17;62.99;95595.38;4971202;28;20504;-68
2020/12/22 11:10:57;;;;;;;0.50;0.38;;;;;;;13.00;63.31;95609.44;4974749;28;20031;-69
2020/12/22 11:13:22;;;;;;;0.85;0.40;;;;;;;13.20;63.15;95608.88;4971200;28;20085;-68
2020/12/22 11:15:48;;;;;;;0.10;0.10;;;;;;;13.01;63.26;95598.44;4972557;28;20540;-68
2020/12/22 11:18:13;;;;;;;1.00;0.10;;;;;;;13.20;62.91;95613.44;4971697;28;20404;-67
2020/12/22 11:20:38;;;;;;;1.45;0.40;;;;;;;13.23;62.59;95602.19;4972644;28;20042;-68
2020/12/22 11:23:04;;;;;;;0.38;0.20;;;;;;;13.10;65.19;95617.16;4974130;28;20069;-68
2020/12/22 11:25:30;;;;;;;0.20;0.17;;;;;;;12.44;68.98;95606.31;4972373;28;20109;-71
2020/12/22 11:27:56;;;;;;;1.42;0.30;;;;;;;12.39;69.36;95603.75;4971612;28;20488;-71
2020/12/22 11:30:22;;;;;;;0.20;0.20;;;;;;;12.19;70.57;95597.03;4970861;28;20094;-70
2020/12/22 11:32:47;;;;;;;0.20;0.20;;;;;;;12.14;71.27;95588.34;4970636;28;20030;-71
2020/12/22 11:35:13;;;;;;;0.82;0.30;;;;;;;12.61;69.70;95605.63;4971929;28;20023;-69